createdAt,value
2022-09-30T00:00:38.636Z,83.90
2022-09-30T00:01:41.326Z,83.90
2022-09-30T00:02:44.776Z,83.90
2022-09-30T00:03:49.316Z,83.90
2022-09-30T00:04:52.868Z,83.90
2022-09-30T00:05:59.099Z,83.90
2022-09-30T00:07:05.849Z,83.90
2022-09-30T00:08:08.178Z,83.90
2022-09-30T00:09:13.166Z,83.90
2022-09-30T00:10:17.340Z,83.90
2022-09-30T00:11:25.359Z,83.90
2022-09-30T00:12:31.317Z,83.90
2022-09-30T00:13:36.149Z,83.90
2022-09-30T00:14:39.879Z,83.90
2022-09-30T00:15:47.283Z,83.90
2022-09-30T00:16:51.354Z,83.90
2022-09-30T00:17:53.653Z,84.00
2022-09-30T00:18:58.102Z,84.00
2022-09-30T00:20:01.647Z,84.00
2022-09-30T00:21:04.700Z,83.90
2022-09-30T00:22:11.658Z,83.90
2022-09-30T00:23:16.414Z,83.90
2022-09-30T00:24:21.135Z,83.90
2022-09-30T00:25:23.686Z,83.90
2022-09-30T00:26:27.485Z,83.90
2022-09-30T00:27:30.378Z,83.90
2022-09-30T00:28:34.091Z,83.90
2022-09-30T00:29:36.480Z,84.00
2022-09-30T00:30:39.914Z,84.00
2022-09-30T00:31:43.447Z,84.00
2022-09-30T00:32:45.919Z,84.10
2022-09-30T00:34:06.875Z,84.10
2022-09-30T00:35:10.634Z,84.20
2022-09-30T00:36:13.287Z,84.20
2022-09-30T00:37:17.944Z,84.20
2022-09-30T00:38:20.472Z,84.30
2022-09-30T00:39:26.336Z,84.30
2022-09-30T00:40:30.175Z,84.30
2022-09-30T00:41:34.305Z,84.30
2022-09-30T00:42:41.043Z,84.30
2022-09-30T00:43:51.429Z,84.30
2022-09-30T00:44:57.214Z,84.40
2022-09-30T00:46:00.605Z,84.40
2022-09-30T00:47:04.220Z,84.40
2022-09-30T00:48:13.404Z,84.50
2022-09-30T00:49:20.662Z,84.50
2022-09-30T00:50:37.701Z,84.60
2022-09-30T00:51:47.650Z,84.60
2022-09-30T00:52:57.306Z,84.60
2022-09-30T00:54:05.651Z,84.60
2022-09-30T00:55:19.729Z,84.60
2022-09-30T00:56:27.156Z,84.70
2022-09-30T00:57:29.842Z,84.70
2022-09-30T00:58:39.400Z,84.80
2022-09-30T00:59:47.130Z,84.80
2022-09-30T01:00:53.170Z,84.80
2022-09-30T01:01:56.011Z,84.90
2022-09-30T01:02:59.602Z,84.90
2022-09-30T01:04:06.188Z,84.90
2022-09-30T01:05:11.753Z,85.00
2022-09-30T01:06:15.274Z,85.00
2022-09-30T01:07:18.113Z,85.10
2022-09-30T01:08:25.990Z,85.20
2022-09-30T01:09:29.207Z,85.20
2022-09-30T01:10:32.675Z,85.30
2022-09-30T01:11:35.229Z,85.30
2022-09-30T01:12:41.373Z,85.40
2022-09-30T01:13:47.882Z,85.50
2022-09-30T01:14:56.158Z,85.60
2022-09-30T01:16:22.540Z,85.60
2022-09-30T01:17:38.020Z,85.60
2022-09-30T01:19:00.682Z,85.60
2022-09-30T01:20:56.079Z,85.60
2022-09-30T01:22:33.781Z,85.60
2022-09-30T01:24:25.606Z,85.70
2022-09-30T01:26:00.930Z,85.70
2022-09-30T01:27:22.891Z,85.70
2022-09-30T01:29:01.665Z,85.70
2022-09-30T01:30:15.365Z,85.70
2022-09-30T01:31:36.821Z,85.70
2022-09-30T01:33:14.103Z,85.80
2022-09-30T01:34:30.010Z,85.80
2022-09-30T01:35:54.632Z,85.80
2022-09-30T01:37:09.740Z,85.90
2022-09-30T01:38:22.350Z,85.90
2022-09-30T01:39:37.517Z,85.90
2022-09-30T01:40:48.238Z,85.90
2022-09-30T01:42:03.632Z,85.90
2022-09-30T01:43:13.084Z,85.90
2022-09-30T01:44:22.252Z,85.90
2022-09-30T01:45:35.336Z,86.00
2022-09-30T01:46:45.124Z,86.00
2022-09-30T01:47:54.580Z,86.00
2022-09-30T01:49:07.975Z,86.00
2022-09-30T01:50:19.418Z,86.00
2022-09-30T01:51:42.968Z,86.00
2022-09-30T01:52:53.596Z,86.10
2022-09-30T01:54:01.638Z,86.10
2022-09-30T01:55:13.020Z,86.10
2022-09-30T01:56:23.723Z,86.10
2022-09-30T01:57:32.138Z,86.10
2022-09-30T01:58:44.258Z,86.10
2022-09-30T01:59:52.653Z,86.20
2022-09-30T02:01:01.915Z,86.20
2022-09-30T02:02:15.320Z,86.20
2022-09-30T02:03:23.842Z,86.30
2022-09-30T02:04:33.684Z,86.30
2022-09-30T02:05:46.909Z,86.30
2022-09-30T02:06:53.563Z,86.30
2022-09-30T02:08:01.374Z,86.30
2022-09-30T02:09:12.561Z,86.30
2022-09-30T02:10:22.984Z,86.30
2022-09-30T02:11:28.770Z,86.30
2022-09-30T02:12:39.431Z,86.30
2022-09-30T02:13:49.980Z,86.40
2022-09-30T02:15:00.947Z,86.30
2022-09-30T02:16:13.176Z,86.30
2022-09-30T02:17:21.910Z,86.30
2022-09-30T02:18:32.568Z,86.30
2022-09-30T02:19:42.215Z,86.30
2022-09-30T02:20:50.517Z,86.30
2022-09-30T02:22:02.248Z,86.30
2022-09-30T02:23:16.320Z,86.30
2022-09-30T02:24:25.436Z,86.30
2022-09-30T02:25:36.687Z,86.30
2022-09-30T02:26:43.698Z,86.30
2022-09-30T02:27:52.356Z,86.30
2022-09-30T02:29:04.164Z,86.30
2022-09-30T02:30:10.053Z,86.30
2022-09-30T02:31:19.588Z,86.30
2022-09-30T02:32:27.789Z,86.30
2022-09-30T02:33:36.435Z,86.30
2022-09-30T02:34:46.077Z,86.30
2022-09-30T02:35:54.821Z,86.30
2022-09-30T02:37:05.091Z,86.30
2022-09-30T02:38:17.437Z,86.30
2022-09-30T02:39:27.337Z,86.30
2022-09-30T02:40:39.963Z,86.30
2022-09-30T02:41:48.147Z,86.30
2022-09-30T02:42:51.793Z,86.30
2022-09-30T02:43:55.134Z,86.30
2022-09-30T02:45:03.818Z,86.30
2022-09-30T02:46:14.010Z,86.30
2022-09-30T02:47:26.784Z,86.30
2022-09-30T02:48:35.857Z,86.30
2022-09-30T02:49:48.481Z,86.30
2022-09-30T02:51:00.607Z,86.30
2022-09-30T02:52:13.172Z,86.30
2022-09-30T02:53:25.697Z,86.30
2022-09-30T02:54:36.623Z,86.30
2022-09-30T02:56:12.010Z,86.30
2022-09-30T02:57:23.286Z,86.30
2022-09-30T02:58:26.202Z,86.40
2022-09-30T02:59:29.756Z,86.30
2022-09-30T03:00:32.313Z,86.40
2022-09-30T03:01:41.826Z,86.40
2022-09-30T03:02:45.724Z,86.40
2022-09-30T03:03:52.923Z,86.40
2022-09-30T03:04:55.301Z,86.40
2022-09-30T03:05:58.905Z,86.40
2022-09-30T03:07:01.989Z,86.40
2022-09-30T03:08:05.438Z,86.50
2022-09-30T03:09:09.429Z,86.50
2022-09-30T03:10:17.292Z,86.60
2022-09-30T03:11:24.414Z,86.60
2022-09-30T03:12:47.532Z,86.60
2022-09-30T03:14:33.564Z,86.60
2022-09-30T03:15:53.087Z,86.60
2022-09-30T03:17:37.057Z,86.60
2022-09-30T03:19:08.017Z,86.60
2022-09-30T03:20:34.498Z,86.60
2022-09-30T03:21:56.697Z,86.60
2022-09-30T03:23:35.171Z,86.60
2022-09-30T03:25:09.582Z,86.60
2022-09-30T03:26:26.287Z,86.60
2022-09-30T03:27:40.338Z,86.60
2022-09-30T03:28:57.464Z,86.60
2022-09-30T03:30:05.352Z,86.60
2022-09-30T03:31:23.254Z,86.60
2022-09-30T03:32:48.305Z,86.60
2022-09-30T03:34:05.238Z,86.60
2022-09-30T03:35:19.729Z,86.50
2022-09-30T03:36:33.291Z,86.60
2022-09-30T03:37:50.517Z,86.60
2022-09-30T03:39:06.144Z,86.60
2022-09-30T03:40:22.698Z,86.60
2022-09-30T03:41:35.063Z,86.60
2022-09-30T03:42:43.669Z,86.60
2022-09-30T03:43:52.148Z,86.70
2022-09-30T03:45:03.100Z,86.70
2022-09-30T03:46:18.545Z,86.70
2022-09-30T03:47:23.222Z,86.70
2022-09-30T03:48:31.023Z,86.70
2022-09-30T03:49:40.236Z,86.80
2022-09-30T03:50:44.076Z,86.80
2022-09-30T03:51:46.757Z,86.80
2022-09-30T03:52:51.428Z,86.80
2022-09-30T03:53:54.181Z,86.80
2022-09-30T03:55:02.752Z,86.80
2022-09-30T03:56:07.593Z,86.90
2022-09-30T03:57:11.048Z,86.90
2022-09-30T03:58:17.804Z,86.90
2022-09-30T03:59:25.634Z,86.90
2022-09-30T04:00:28.973Z,87.00
2022-09-30T04:01:31.398Z,87.00
2022-09-30T04:02:37.924Z,87.00
2022-09-30T04:03:40.510Z,87.00
2022-09-30T04:04:45.164Z,87.00
2022-09-30T04:05:50.190Z,87.00
2022-09-30T04:06:53.498Z,87.00
2022-09-30T04:07:55.790Z,87.00
2022-09-30T04:08:59.268Z,87.00
2022-09-30T04:10:02.390Z,87.00
2022-09-30T04:11:08.217Z,87.00
2022-09-30T04:12:10.514Z,87.00
2022-09-30T04:13:16.385Z,87.00
2022-09-30T04:14:18.713Z,87.00
2022-09-30T04:15:24.410Z,87.00
2022-09-30T04:16:27.832Z,87.00
2022-09-30T04:17:30.259Z,87.00
2022-09-30T04:18:33.681Z,87.00
2022-09-30T04:19:40.091Z,87.10
2022-09-30T04:20:45.422Z,87.10
2022-09-30T04:21:47.902Z,87.10
2022-09-30T04:22:51.332Z,87.10
2022-09-30T04:23:53.747Z,87.10
2022-09-30T04:24:57.091Z,87.10
2022-09-30T04:25:59.502Z,87.10
2022-09-30T04:27:03.007Z,87.20
2022-09-30T04:28:05.549Z,87.20
2022-09-30T04:29:08.850Z,87.20
2022-09-30T04:30:11.950Z,87.20
2022-09-30T04:31:17.196Z,87.20
2022-09-30T04:32:21.971Z,87.30
2022-09-30T04:33:28.324Z,87.30
2022-09-30T04:34:31.286Z,87.30
2022-09-30T04:35:34.697Z,87.30
2022-09-30T04:36:38.769Z,87.30
2022-09-30T04:37:45.506Z,87.40
2022-09-30T04:38:52.854Z,87.40
2022-09-30T04:39:57.714Z,87.40
2022-09-30T04:41:05.395Z,87.40
2022-09-30T04:42:07.821Z,87.50
2022-09-30T04:43:11.229Z,87.50
2022-09-30T04:44:13.580Z,87.50
2022-09-30T04:45:17.130Z,87.60
2022-09-30T04:46:22.598Z,87.60
2022-09-30T04:47:29.337Z,87.60
2022-09-30T04:48:32.350Z,87.60
2022-09-30T04:49:35.860Z,87.80
2022-09-30T04:50:42.635Z,87.80
2022-09-30T04:51:52.296Z,87.80
2022-09-30T04:52:57.924Z,88.00
2022-09-30T04:54:03.285Z,88.00
2022-09-30T04:55:10.641Z,88.00
2022-09-30T04:56:19.355Z,88.00
2022-09-30T04:57:23.618Z,88.10
2022-09-30T04:58:32.212Z,88.10
2022-09-30T04:59:39.585Z,88.10
2022-09-30T05:00:46.523Z,88.10
2022-09-30T05:01:51.350Z,88.10
2022-09-30T05:02:55.124Z,88.10
2022-09-30T05:03:58.063Z,88.20
2022-09-30T05:05:03.293Z,88.20
2022-09-30T05:06:08.795Z,88.20
2022-09-30T05:07:13.778Z,88.20
2022-09-30T05:08:16.218Z,88.20
2022-09-30T05:09:19.699Z,88.20
2022-09-30T05:10:22.108Z,88.20
2022-09-30T05:11:25.622Z,88.30
2022-09-30T05:12:28.144Z,88.30
2022-09-30T05:13:34.230Z,88.30
2022-09-30T05:14:36.555Z,88.40
2022-09-30T05:15:40.026Z,88.40
2022-09-30T05:16:42.557Z,88.50
2022-09-30T05:17:50.991Z,88.60
2022-09-30T05:18:53.904Z,88.60
2022-09-30T05:19:59.926Z,88.70
2022-09-30T05:21:05.517Z,88.70
2022-09-30T05:22:08.949Z,88.70
2022-09-30T05:23:12.630Z,88.70
2022-09-30T05:24:16.304Z,88.70
2022-09-30T05:25:18.775Z,88.90
2022-09-30T05:26:24.282Z,88.90
2022-09-30T05:27:26.784Z,88.90
2022-09-30T05:28:33.834Z,88.90
2022-09-30T05:29:36.184Z,88.90
2022-09-30T05:30:40.039Z,89.00
2022-09-30T05:31:43.206Z,89.00
2022-09-30T05:32:51.817Z,89.00
2022-09-30T05:33:58.049Z,89.00
2022-09-30T05:35:03.581Z,89.00
2022-09-30T05:36:09.135Z,89.00
2022-09-30T05:37:12.553Z,89.00
2022-09-30T05:38:16.377Z,89.00
2022-09-30T05:39:19.843Z,89.00
2022-09-30T05:40:22.255Z,88.90
2022-09-30T05:41:25.744Z,88.90
2022-09-30T05:42:28.275Z,88.90
2022-09-30T05:43:32.683Z,88.90
2022-09-30T05:44:36.185Z,89.00
2022-09-30T05:45:39.427Z,89.00
2022-09-30T05:46:44.030Z,89.00
2022-09-30T05:47:53.329Z,89.00
2022-09-30T05:48:56.735Z,89.00
2022-09-30T05:49:59.607Z,89.00
2022-09-30T05:51:03.409Z,89.10
2022-09-30T05:52:06.193Z,89.10
2022-09-30T05:53:09.585Z,89.10
2022-09-30T05:54:14.237Z,89.20
2022-09-30T05:55:18.732Z,89.40
2022-09-30T05:56:22.237Z,89.40
2022-09-30T05:57:25.375Z,89.40
2022-09-30T05:58:28.955Z,89.40
2022-09-30T05:59:31.661Z,89.40
2022-09-30T06:00:35.101Z,89.60
2022-09-30T06:01:38.386Z,89.70
2022-09-30T06:02:42.675Z,89.80
2022-09-30T06:03:47.601Z,90.00
2022-09-30T06:04:51.703Z,90.10
2022-09-30T06:05:56.872Z,90.10
2022-09-30T06:07:00.724Z,90.10
2022-09-30T06:08:10.414Z,90.20
2022-09-30T06:09:15.600Z,90.40
2022-09-30T06:10:18.666Z,90.40
2022-09-30T06:11:25.266Z,90.30
2022-09-30T06:12:29.029Z,90.40
2022-09-30T06:13:33.331Z,90.40
2022-09-30T06:14:37.217Z,90.40
2022-09-30T06:15:41.566Z,90.40
2022-09-30T06:16:44.634Z,90.30
2022-09-30T06:17:54.757Z,90.60
2022-09-30T06:18:57.853Z,90.50
2022-09-30T06:20:02.200Z,90.20
2022-09-30T06:21:07.331Z,89.90
2022-09-30T06:22:10.161Z,89.70
2022-09-30T06:23:13.895Z,89.20
2022-09-30T06:24:19.373Z,88.70
2022-09-30T06:25:23.339Z,88.20
2022-09-30T06:26:27.087Z,87.60
2022-09-30T06:27:34.263Z,87.20
2022-09-30T06:28:38.402Z,86.70
2022-09-30T06:29:43.779Z,86.20
2022-09-30T06:30:48.245Z,85.60
2022-09-30T06:31:52.202Z,85.00
2022-09-30T06:32:57.508Z,84.30
2022-09-30T06:34:04.836Z,83.70
2022-09-30T06:35:08.575Z,83.10
2022-09-30T06:36:14.407Z,82.40
2022-09-30T06:37:18.593Z,81.80
2022-09-30T06:38:23.119Z,81.00
2022-09-30T06:39:28.036Z,80.60
2022-09-30T06:40:31.403Z,79.90
2022-09-30T06:41:37.998Z,79.30
2022-09-30T06:42:43.004Z,78.60
2022-09-30T06:43:50.350Z,78.00
2022-09-30T06:44:57.261Z,77.50
2022-09-30T06:46:11.533Z,76.90
2022-09-30T06:47:25.114Z,76.60
2022-09-30T06:48:37.857Z,75.80
2022-09-30T06:49:49.188Z,74.80
2022-09-30T06:51:01.559Z,74.50
2022-09-30T06:52:05.540Z,73.80
2022-09-30T06:53:12.741Z,73.30
2022-09-30T06:54:16.594Z,72.60
2022-09-30T06:55:20.971Z,71.80
2022-09-30T06:56:26.660Z,71.60
2022-09-30T06:57:33.077Z,71.20
2022-09-30T06:58:35.825Z,70.80
2022-09-30T06:59:39.129Z,69.70
2022-09-30T07:00:41.689Z,69.00
2022-09-30T07:01:45.532Z,68.70
2022-09-30T07:02:49.847Z,68.80
2022-09-30T07:03:58.113Z,68.60
2022-09-30T07:05:03.588Z,68.90
2022-09-30T07:06:08.283Z,68.40
2022-09-30T07:07:11.087Z,68.20
2022-09-30T07:08:14.478Z,68.10
2022-09-30T07:09:17.924Z,68.20
2022-09-30T07:10:23.069Z,67.70
2022-09-30T07:11:26.030Z,67.40
2022-09-30T07:12:32.405Z,67.30
2022-09-30T07:13:35.033Z,66.70
2022-09-30T07:14:38.660Z,66.00
2022-09-30T07:15:42.944Z,65.50
2022-09-30T07:16:46.491Z,65.60
2022-09-30T07:17:52.139Z,65.30
2022-09-30T07:18:55.583Z,64.50
2022-09-30T07:19:58.765Z,63.90
2022-09-30T07:21:02.096Z,63.70
2022-09-30T07:22:19.386Z,63.00
2022-09-30T07:23:27.197Z,62.80
2022-09-30T07:24:30.159Z,62.70
2022-09-30T07:25:37.440Z,62.60
2022-09-30T07:26:41.555Z,62.50
2022-09-30T07:27:45.017Z,62.60
2022-09-30T07:28:49.764Z,62.10
2022-09-30T07:31:35.308Z,61.80
2022-09-30T07:32:39.389Z,62.30
2022-09-30T07:33:41.962Z,61.90
2022-09-30T07:34:45.333Z,61.70
2022-09-30T07:35:52.262Z,61.20
2022-09-30T07:36:55.948Z,60.60
2022-09-30T07:38:01.277Z,59.60
2022-09-30T07:39:08.231Z,59.60
2022-09-30T07:40:11.847Z,58.80
2022-09-30T07:41:21.888Z,59.30
2022-09-30T07:42:25.293Z,59.30
2022-09-30T07:43:34.789Z,59.60
2022-09-30T07:44:41.941Z,59.10
2022-09-30T07:45:44.486Z,58.80
2022-09-30T07:46:48.253Z,58.10
2022-09-30T07:47:53.717Z,58.10
2022-09-30T07:49:01.792Z,58.20
2022-09-30T07:50:05.893Z,57.70
2022-09-30T07:51:09.117Z,57.00
2022-09-30T07:52:14.094Z,56.40
2022-09-30T07:53:21.114Z,56.50
2022-09-30T07:54:30.619Z,55.40
2022-09-30T07:55:34.277Z,54.90
2022-09-30T07:57:10.076Z,54.90
2022-09-30T07:58:10.453Z,54.60
2022-09-30T07:59:13.877Z,54.30
2022-09-30T08:00:41.173Z,53.90
2022-09-30T08:01:40.719Z,53.50
2022-09-30T08:02:44.379Z,52.80
2022-09-30T08:03:53.867Z,52.00
2022-09-30T08:04:57.232Z,52.10
2022-09-30T08:06:06.589Z,52.20
2022-09-30T08:07:10.365Z,52.30
2022-09-30T08:08:13.325Z,51.90
2022-09-30T08:09:22.448Z,51.40
2022-09-30T08:10:27.661Z,51.10
2022-09-30T08:11:35.509Z,51.20
2022-09-30T08:12:40.391Z,50.30
2022-09-30T08:13:43.267Z,50.30
2022-09-30T08:14:46.750Z,50.20
2022-09-30T08:15:49.638Z,49.70
2022-09-30T08:16:58.468Z,49.20
2022-09-30T08:18:01.045Z,49.10
2022-09-30T08:19:05.028Z,48.40
2022-09-30T08:20:13.253Z,48.60
2022-09-30T08:21:17.719Z,48.70
2022-09-30T08:22:23.923Z,48.70
2022-09-30T08:23:28.899Z,48.90
2022-09-30T08:24:32.233Z,49.30
2022-09-30T08:25:34.625Z,49.50
2022-09-30T08:26:38.417Z,49.60
2022-09-30T08:27:42.324Z,50.00
2022-09-30T08:28:47.317Z,50.30
2022-09-30T08:29:54.847Z,50.50
2022-09-30T08:31:05.836Z,51.10
2022-09-30T08:32:09.420Z,51.50
2022-09-30T08:33:14.197Z,51.70
2022-09-30T08:34:17.680Z,51.80
2022-09-30T08:35:21.634Z,52.30
2022-09-30T08:36:27.581Z,52.30
2022-09-30T08:37:33.588Z,53.00
2022-09-30T08:38:37.551Z,53.50
2022-09-30T08:39:40.150Z,54.00
2022-09-30T08:41:05.582Z,54.30
2022-09-30T08:42:49.126Z,54.80
2022-09-30T08:44:05.966Z,55.60
2022-09-30T08:45:25.598Z,56.80
2022-09-30T08:46:45.369Z,57.60
2022-09-30T08:48:01.959Z,57.80
2022-09-30T08:49:28.497Z,57.70
2022-09-30T08:50:41.720Z,57.70
2022-09-30T08:51:49.620Z,57.50
2022-09-30T08:52:59.042Z,57.40
2022-09-30T08:54:06.052Z,55.70
2022-09-30T08:55:13.397Z,54.70
2022-09-30T08:56:24.181Z,53.80
2022-09-30T08:57:35.269Z,53.30
2022-09-30T08:58:46.075Z,53.20
2022-09-30T08:59:56.607Z,53.10
2022-09-30T09:01:07.778Z,52.70
2022-09-30T09:02:21.970Z,52.70
2022-09-30T09:03:34.221Z,52.40
2022-09-30T09:04:36.662Z,52.40
2022-09-30T09:05:52.635Z,53.10
2022-09-30T09:07:09.320Z,53.30
2022-09-30T09:08:18.692Z,53.70
2022-09-30T09:09:37.565Z,53.90
2022-09-30T09:10:46.860Z,53.80
2022-09-30T09:12:07.145Z,54.30
2022-09-30T09:13:29.933Z,54.80
2022-09-30T09:14:50.651Z,55.10
2022-09-30T09:16:07.221Z,55.40
2022-09-30T09:17:25.928Z,56.00
2022-09-30T09:18:40.262Z,56.30
2022-09-30T09:19:52.847Z,55.40
2022-09-30T09:21:00.933Z,54.60
2022-09-30T09:22:04.013Z,53.90
2022-09-30T09:23:13.782Z,53.60
2022-09-30T09:24:23.204Z,52.40
2022-09-30T09:25:35.719Z,51.90
2022-09-30T09:26:40.191Z,51.20
2022-09-30T09:27:54.191Z,50.30
2022-09-30T09:29:12.415Z,50.00
2022-09-30T09:30:23.741Z,49.90
2022-09-30T09:31:30.153Z,49.50
2022-09-30T09:32:34.630Z,49.70
2022-09-30T09:33:42.053Z,49.50
2022-09-30T09:34:44.954Z,49.20
2022-09-30T09:35:56.586Z,48.70
2022-09-30T09:37:18.564Z,48.80
2022-09-30T09:38:35.788Z,48.80
2022-09-30T09:40:08.537Z,48.20
2022-09-30T09:41:26.982Z,48.00
2022-09-30T09:42:59.001Z,48.50
2022-09-30T09:44:12.211Z,47.70
2022-09-30T09:45:29.153Z,48.30
2022-09-30T09:46:45.762Z,46.50
2022-09-30T09:47:51.987Z,47.00
2022-09-30T09:49:32.918Z,46.80
2022-09-30T09:50:46.343Z,46.50
2022-09-30T09:51:56.506Z,46.30
2022-09-30T09:53:17.688Z,46.70
2022-09-30T09:54:22.753Z,46.30
2022-09-30T09:55:26.373Z,46.10
2022-09-30T09:56:32.677Z,44.80
2022-09-30T09:57:37.683Z,45.00
2022-09-30T09:59:11.487Z,44.70
2022-09-30T10:00:44.378Z,44.00
2022-09-30T10:01:53.895Z,44.30
2022-09-30T10:03:12.186Z,45.00
2022-09-30T10:04:24.609Z,44.40
2022-09-30T10:05:39.611Z,45.20
2022-09-30T10:06:53.107Z,44.50
2022-09-30T10:08:17.060Z,45.20
2022-09-30T10:09:30.998Z,44.80
2022-09-30T10:10:45.808Z,44.20
2022-09-30T10:11:51.712Z,44.70
2022-09-30T10:12:55.134Z,44.60
2022-09-30T10:14:01.118Z,44.30
2022-09-30T10:15:23.753Z,44.10
2022-09-30T10:16:35.545Z,44.50
2022-09-30T10:17:40.863Z,43.70
2022-09-30T10:18:45.426Z,43.70
2022-09-30T10:19:53.252Z,43.70
2022-09-30T10:21:01.733Z,43.70
2022-09-30T10:22:19.920Z,44.20
2022-09-30T10:23:30.241Z,43.90
2022-09-30T10:24:36.891Z,44.00
2022-09-30T10:25:40.457Z,43.30
2022-09-30T10:26:49.788Z,43.80
2022-09-30T10:28:00.112Z,43.80
2022-09-30T10:29:05.225Z,43.70
2022-09-30T10:30:10.457Z,44.50
2022-09-30T10:31:23.651Z,44.80
2022-09-30T10:32:27.401Z,43.90
2022-09-30T10:33:38.206Z,44.50
2022-09-30T10:34:44.077Z,44.60
2022-09-30T10:35:58.212Z,44.60
2022-09-30T10:37:11.744Z,45.40
2022-09-30T10:38:16.615Z,44.20
2022-09-30T10:39:27.037Z,43.80
2022-09-30T10:40:31.316Z,43.70
2022-09-30T10:41:38.160Z,44.00
2022-09-30T10:42:48.434Z,44.10
2022-09-30T10:43:55.293Z,43.70
2022-09-30T10:45:03.092Z,44.50
2022-09-30T10:46:25.351Z,44.80
2022-09-30T10:47:36.618Z,44.80
2022-09-30T10:48:51.781Z,45.00
2022-09-30T10:50:03.429Z,44.80
2022-09-30T10:51:36.222Z,44.10
2022-09-30T10:52:50.574Z,43.50
2022-09-30T10:53:53.682Z,43.80
2022-09-30T10:54:59.489Z,43.80
2022-09-30T10:56:05.336Z,44.10
2022-09-30T10:57:17.454Z,44.40
2022-09-30T10:58:35.812Z,43.90
2022-09-30T10:59:43.436Z,43.40
2022-09-30T11:00:52.040Z,44.40
2022-09-30T11:02:06.103Z,45.10
2022-09-30T11:03:16.523Z,44.60
2022-09-30T11:04:31.762Z,45.60
2022-09-30T11:05:40.564Z,43.80
2022-09-30T11:06:47.622Z,43.60
2022-09-30T11:08:00.552Z,44.80
2022-09-30T11:09:11.711Z,43.50
2022-09-30T11:10:34.041Z,43.70
2022-09-30T11:11:44.228Z,43.90
2022-09-30T11:12:55.121Z,43.90
2022-09-30T11:14:07.460Z,43.80
2022-09-30T11:15:20.416Z,45.40
2022-09-30T11:16:34.472Z,45.20
2022-09-30T11:17:48.725Z,44.70
2022-09-30T11:19:00.632Z,45.20
2022-09-30T11:20:22.605Z,46.20
2022-09-30T11:21:35.374Z,49.60
2022-09-30T11:22:48.322Z,46.90
2022-09-30T11:24:01.431Z,46.90
2022-09-30T11:25:08.851Z,47.20
2022-09-30T11:26:27.256Z,46.60
2022-09-30T11:27:44.945Z,46.60
2022-09-30T11:29:06.108Z,47.20
2022-09-30T11:30:19.202Z,47.10
2022-09-30T11:31:32.599Z,46.00
2022-09-30T11:33:02.444Z,46.00
2022-09-30T11:34:22.947Z,46.30
2022-09-30T11:35:52.788Z,47.30
2022-09-30T11:37:08.567Z,47.00
2022-09-30T11:38:30.331Z,47.30
2022-09-30T11:40:01.966Z,47.30
2022-09-30T11:41:11.522Z,46.10
2022-09-30T11:42:23.186Z,46.80
2022-09-30T11:43:39.235Z,46.50
2022-09-30T11:44:44.969Z,46.70
2022-09-30T11:46:22.718Z,47.40
2022-09-30T11:47:44.578Z,47.40
2022-09-30T11:49:17.908Z,48.50
2022-09-30T11:50:45.732Z,47.50
2022-09-30T11:51:58.962Z,47.50
2022-09-30T11:53:19.476Z,47.80
2022-09-30T11:54:42.192Z,47.80
2022-09-30T11:56:04.441Z,47.70
2022-09-30T11:57:15.827Z,47.00
2022-09-30T11:59:50.392Z,47.40
2022-09-30T12:01:01.870Z,47.20
2022-09-30T12:02:15.393Z,46.50
2022-09-30T12:03:28.750Z,46.80
2022-09-30T12:04:40.639Z,46.80
2022-09-30T12:05:48.673Z,47.10
2022-09-30T12:06:59.896Z,47.90
2022-09-30T12:08:13.041Z,47.40
2022-09-30T12:09:22.770Z,47.50
2022-09-30T12:10:33.452Z,47.50
2022-09-30T12:11:49.828Z,47.70
2022-09-30T12:13:00.344Z,46.20
2022-09-30T12:14:11.949Z,46.60
2022-09-30T12:15:21.445Z,46.50
2022-09-30T12:16:27.901Z,47.00
2022-09-30T12:17:42.729Z,47.00
2022-09-30T12:18:53.241Z,46.80
2022-09-30T12:20:08.688Z,46.90
2022-09-30T12:21:22.800Z,47.40
2022-09-30T12:22:31.708Z,47.00
2022-09-30T12:23:45.588Z,47.10
2022-09-30T12:24:52.766Z,47.30
2022-09-30T12:26:00.732Z,47.30
2022-09-30T12:27:13.032Z,47.30
2022-09-30T12:28:45.820Z,47.40
2022-09-30T12:30:18.510Z,47.30
2022-09-30T12:32:09.035Z,47.50
2022-09-30T12:33:41.063Z,48.20
2022-09-30T12:35:02.000Z,46.30
2022-09-30T12:36:58.624Z,46.00
2022-09-30T12:38:33.710Z,46.40
2022-09-30T12:39:59.899Z,46.90
2022-09-30T12:41:25.190Z,47.90
2022-09-30T12:43:10.885Z,48.70
2022-09-30T12:44:55.332Z,49.60
2022-09-30T12:46:15.830Z,49.80
2022-09-30T12:47:34.617Z,50.10
2022-09-30T12:48:40.555Z,50.00
2022-09-30T12:49:47.077Z,50.50
2022-09-30T12:50:57.714Z,50.20
2022-09-30T12:52:12.771Z,50.10
2022-09-30T12:53:23.748Z,50.60
2022-09-30T12:54:32.523Z,50.80
2022-09-30T12:55:41.710Z,51.10
2022-09-30T12:56:48.391Z,51.10
2022-09-30T12:57:54.098Z,51.40
2022-09-30T12:59:00.530Z,51.30
2022-09-30T13:00:14.789Z,51.10
2022-09-30T13:01:24.247Z,50.80
2022-09-30T13:02:35.730Z,50.40
2022-09-30T13:03:53.317Z,50.50
2022-09-30T13:05:15.736Z,50.60
2022-09-30T13:06:22.052Z,50.70
2022-09-30T13:07:25.831Z,51.20
2022-09-30T13:09:19.782Z,51.10
2022-09-30T13:10:30.603Z,51.50
2022-09-30T13:11:41.879Z,51.70
2022-09-30T13:12:50.489Z,51.50
2022-09-30T13:14:40.231Z,51.60
2022-09-30T13:15:44.401Z,51.40
2022-09-30T13:17:29.010Z,51.70
2022-09-30T13:19:02.301Z,52.00
2022-09-30T13:23:36.069Z,53.20
2022-09-30T13:25:12.069Z,53.90
2022-09-30T13:26:46.373Z,54.30
2022-09-30T13:27:53.322Z,54.50
2022-09-30T13:29:38.222Z,54.50
2022-09-30T13:30:42.453Z,54.50
2022-09-30T13:32:05.824Z,54.30
2022-09-30T13:33:44.486Z,54.30
2022-09-30T13:35:33.292Z,54.10
2022-09-30T13:36:41.195Z,53.90
2022-09-30T13:37:44.650Z,53.70
2022-09-30T13:39:20.831Z,53.60
2022-09-30T13:40:49.791Z,53.10
2022-09-30T13:42:07.447Z,53.00
2022-09-30T13:43:18.057Z,52.70
2022-09-30T13:44:27.801Z,53.00
2022-09-30T13:45:39.736Z,53.10
2022-09-30T13:46:49.866Z,53.10
2022-09-30T13:48:11.197Z,53.40
2022-09-30T13:49:22.728Z,53.50
2022-09-30T13:50:33.764Z,53.70
2022-09-30T13:51:38.021Z,54.10
2022-09-30T13:52:46.008Z,54.00
2022-09-30T13:53:55.333Z,54.60
2022-09-30T13:55:03.288Z,54.30
2022-09-30T13:56:11.257Z,54.50
2022-09-30T13:57:24.408Z,54.80
2022-09-30T13:58:58.832Z,54.80
2022-09-30T14:00:14.199Z,54.90
2022-09-30T14:01:37.628Z,54.40
2022-09-30T14:03:13.066Z,54.60
2022-09-30T14:04:46.261Z,54.70
2022-09-30T14:06:02.286Z,55.30
2022-09-30T14:07:16.391Z,55.60
2022-09-30T14:09:10.033Z,55.70
2022-09-30T14:10:35.668Z,55.60
2022-09-30T14:12:14.853Z,55.40
2022-09-30T14:13:41.383Z,55.30
2022-09-30T14:15:38.403Z,55.40
2022-09-30T14:17:19.217Z,55.20
2022-09-30T14:18:49.178Z,55.70
2022-09-30T14:20:13.627Z,55.70
2022-09-30T14:21:35.049Z,56.30
2022-09-30T14:22:39.010Z,56.20
2022-09-30T14:23:42.473Z,56.70
2022-09-30T14:24:47.911Z,56.80
2022-09-30T14:26:00.069Z,56.90
2022-09-30T14:27:36.873Z,57.00
2022-09-30T14:28:47.860Z,57.10
2022-09-30T14:30:04.262Z,57.30
2022-09-30T14:31:15.676Z,56.60
2022-09-30T14:32:29.106Z,56.20
2022-09-30T14:33:34.479Z,56.00
2022-09-30T14:34:37.173Z,55.40
2022-09-30T14:35:43.218Z,54.90
2022-09-30T14:36:47.117Z,54.70
2022-09-30T14:37:54.506Z,54.30
2022-09-30T14:39:01.131Z,54.20
2022-09-30T14:40:14.019Z,54.20
2022-09-30T14:41:21.115Z,53.80
2022-09-30T14:42:30.889Z,53.90
2022-09-30T14:43:46.238Z,53.80
2022-09-30T14:44:50.937Z,54.00
2022-09-30T14:45:58.087Z,53.90
2022-09-30T14:47:03.428Z,53.80
2022-09-30T14:48:12.832Z,53.60
2022-09-30T14:49:22.544Z,53.80
2022-09-30T14:50:31.268Z,53.50
2022-09-30T14:51:43.441Z,53.40
2022-09-30T14:52:56.061Z,53.80
2022-09-30T14:54:02.317Z,53.80
2022-09-30T14:55:25.724Z,54.00
2022-09-30T14:56:31.705Z,54.40
2022-09-30T14:57:35.037Z,54.60
2022-09-30T14:58:42.704Z,54.80
2022-09-30T14:59:46.150Z,54.90
2022-09-30T15:01:00.559Z,55.40
2022-09-30T15:02:16.985Z,55.20
2022-09-30T15:03:22.121Z,54.90
2022-09-30T15:04:29.296Z,55.30
2022-09-30T15:05:37.918Z,55.50
2022-09-30T15:06:45.479Z,55.70
2022-09-30T15:07:49.235Z,55.80
2022-09-30T15:09:00.824Z,55.30
2022-09-30T15:10:04.408Z,55.70
2022-09-30T15:11:08.366Z,55.60
2022-09-30T15:12:17.372Z,55.70
2022-09-30T15:13:22.913Z,55.40
2022-09-30T15:14:26.668Z,55.50
2022-09-30T15:15:35.741Z,55.90
2022-09-30T15:16:49.531Z,56.10